Time;durP1;ratioP1;P1;durP2;ratioP2;P2;SDS_P1;SDS_P2;PMS_P1;PMS_P2;Temp;Humidity;BMP_temperature;BMP_pressure;BME280_temperature;BME280_humidity;BME280_pressure;Samples;Min_cycle;Max_cycle;Signal;HPM_P1;HPM_P2
2022/10/15 00:01:08;;;;;;;0.83;0.57;;;;;;;;;;5112678;28;20486;-72
2022/10/15 00:03:36;;;;;;;1.10;0.70;;;;;;;;;;5100319;28;20527;-71
2022/10/15 00:06:04;;;;;;;0.90;0.60;;;;;;;;;;5112814;28;20440;-70
2022/10/15 00:08:33;;;;;;;1.00;0.67;;;;;;;;;;5113100;28;20439;-70
2022/10/15 00:11:03;;;;;;;1.23;0.60;;;;;;;;;;5112904;28;20460;-69
2022/10/15 00:13:31;;;;;;;1.40;0.83;;;;;;;;;;5113539;28;20460;-70
2022/10/15 00:15:59;;;;;;;0.90;0.50;;;;;;;;;;5112403;28;21010;-70
2022/10/15 00:18:26;;;;;;;1.07;0.60;;;;;;;;;;5113066;28;20790;-70
2022/10/15 00:20:53;;;;;;;0.90;0.70;;;;;;;;;;5113287;28;20479;-70
2022/10/15 00:23:20;;;;;;;0.97;0.50;;;;;;;;;;5113534;27;20550;-70
2022/10/15 00:25:49;;;;;;;2.70;0.50;;;;;;;;;;5113161;28;20455;-71
2022/10/15 00:28:16;;;;;;;1.10;1.00;;;;;;;;;;5112123;28;20451;-71
2022/10/15 00:30:43;;;;;;;1.30;0.93;;;;;;;;;;5113036;28;20559;-71
2022/10/15 00:33:10;;;;;;;0.90;0.60;;;;;;;;;;5112289;28;20440;-71
2022/10/15 00:35:37;;;;;;;1.00;0.60;;;;;;;;;;5112918;28;20475;-71
2022/10/15 00:38:04;;;;;;;1.40;0.70;;;;;;;;;;5111894;28;20507;-71
2022/10/15 00:40:31;;;;;;;0.70;0.40;;;;;;;;;;5112480;28;20448;-71
2022/10/15 00:43:00;;;;;;;1.43;1.00;;;;;;;;;;5112023;28;20451;-70
2022/10/15 00:45:27;;;;;;;0.90;0.57;;;;;;;;;;5112620;28;20446;-71
2022/10/15 00:47:54;;;;;;;0.70;0.50;;;;;;;;;;5112052;28;20483;-70
2022/10/15 00:50:22;;;;;;;0.83;0.57;;;;;;;;;;5112593;28;20444;-71
2022/10/15 00:53:00;;;;;;;0.70;0.50;;;;;;;;;;5112343;28;20958;-71
2022/10/15 00:55:29;;;;;;;1.07;0.63;;;;;;;;;;5112296;28;20451;-71
2022/10/15 00:57:57;;;;;;;0.70;0.50;;;;;;;;;;5111326;28;20969;-71
2022/10/15 01:00:25;;;;;;;0.70;0.40;;;;;;;;;;5112205;28;20453;-71
2022/10/15 01:02:52;;;;;;;0.70;0.43;;;;;;;;;;5112478;28;20832;-70
2022/10/15 01:05:19;;;;;;;1.43;1.10;;;;;;;;;;5111957;28;20445;-71
2022/10/15 01:07:46;;;;;;;0.80;0.50;;;;;;;;;;5111660;28;20444;-71
2022/10/15 01:10:14;;;;;;;1.30;0.63;;;;;;;;;;5111432;28;20454;-71
2022/10/15 01:12:47;;;;;;;0.70;0.40;;;;;;;;;;5111928;28;20447;-71
2022/10/15 01:15:20;;;;;;;1.50;0.50;;;;;;;;;;5111857;28;20888;-72
2022/10/15 01:17:51;;;;;;;1.57;0.53;;;;;;;;;;5111887;28;20448;-71
2022/10/15 01:20:37;;;;;;;1.17;0.70;;;;;;;;;;5111823;28;20447;-71
2022/10/15 01:23:15;;;;;;;0.90;0.60;;;;;;;;;;5111359;28;20482;-71
2022/10/15 01:25:49;;;;;;;0.90;0.60;;;;;;;;;;5112066;28;20451;-70
2022/10/15 01:28:24;;;;;;;1.10;0.70;;;;;;;;;;5110761;28;20929;-71
2022/10/15 01:30:56;;;;;;;0.70;0.50;;;;;;;;;;5111823;28;20513;-71
2022/10/15 01:33:27;;;;;;;2.43;0.60;;;;;;;;;;5112099;28;20470;-70
2022/10/15 01:35:55;;;;;;;0.80;0.60;;;;;;;;;;5112022;28;20443;-71
2022/10/15 01:38:33;;;;;;;1.00;0.57;;;;;;;;;;5111879;28;21214;-70
2022/10/15 01:41:04;;;;;;;0.80;0.47;;;;;;;;;;5098134;28;20439;-71
2022/10/15 01:43:34;;;;;;;2.60;0.50;;;;;;;;;;5111480;28;20454;-72
2022/10/15 01:46:04;;;;;;;0.70;0.40;;;;;;;;;;5110070;28;20962;-73
2022/10/15 01:48:33;;;;;;;0.97;0.50;;;;;;;;;;5110116;28;20495;-73
2022/10/15 01:51:02;;;;;;;0.97;0.50;;;;;;;;;;5110237;28;20448;-71
2022/10/15 01:53:30;;;;;;;0.90;0.50;;;;;;;;;;5099214;28;20562;-71
2022/10/15 01:55:59;;;;;;;0.70;0.50;;;;;;;;;;5108202;28;20930;-70
2022/10/15 01:58:27;;;;;;;1.00;0.73;;;;;;;;;;5095241;28;20976;-70
2022/10/15 02:00:55;;;;;;;0.70;0.40;;;;;;;;;;5111386;28;20444;-70
2022/10/15 02:03:23;;;;;;;1.53;0.50;;;;;;;;;;5108565;28;20785;-71
2022/10/15 02:05:52;;;;;;;0.80;0.50;;;;;;;;;;5107393;28;20452;-71
2022/10/15 02:08:25;;;;;;;1.17;0.53;;;;;;;;;;5109873;28;20455;-71
2022/10/15 02:10:56;;;;;;;0.80;0.40;;;;;;;;;;5111656;28;20493;-69
2022/10/15 02:13:26;;;;;;;1.10;0.63;;;;;;;;;;5111928;28;20792;-70
2022/10/15 02:15:55;;;;;;;0.77;0.50;;;;;;;;;;5111508;28;20804;-69
2022/10/15 02:18:29;;;;;;;2.90;0.70;;;;;;;;;;5111410;28;20448;-69
2022/10/15 02:20:58;;;;;;;1.07;0.60;;;;;;;;;;5107476;28;20452;-70
2022/10/15 02:23:27;;;;;;;0.70;0.50;;;;;;;;;;5111420;28;20480;-70
2022/10/15 02:25:55;;;;;;;0.90;0.50;;;;;;;;;;5111610;28;20440;-70
2022/10/15 02:28:24;;;;;;;0.90;0.50;;;;;;;;;;5110792;28;20980;-70
2022/10/15 02:30:52;;;;;;;0.70;0.40;;;;;;;;;;5111232;28;20535;-70
2022/10/15 02:33:20;;;;;;;1.03;0.80;;;;;;;;;;5110700;28;20448;-70
2022/10/15 02:35:51;;;;;;;0.70;0.50;;;;;;;;;;5111104;28;20440;-70
2022/10/15 02:38:20;;;;;;;0.90;0.60;;;;;;;;;;5110147;28;20454;-71
2022/10/15 02:40:48;;;;;;;0.70;0.40;;;;;;;;;;5111001;28;20926;-71
2022/10/15 02:43:15;;;;;;;0.80;0.43;;;;;;;;;;5110145;28;20875;-70
2022/10/15 02:45:43;;;;;;;0.73;0.40;;;;;;;;;;5111278;28;20845;-70
2022/10/15 02:48:10;;;;;;;0.70;0.50;;;;;;;;;;5110063;28;20468;-70
2022/10/15 02:50:37;;;;;;;0.87;0.50;;;;;;;;;;5110564;28;20953;-70
2022/10/15 02:53:05;;;;;;;1.03;0.40;;;;;;;;;;5110160;28;20447;-70
2022/10/15 02:55:33;;;;;;;1.07;0.50;;;;;;;;;;5111233;28;20439;-70
2022/10/15 02:58:00;;;;;;;1.20;0.70;;;;;;;;;;5100680;28;20459;-70
2022/10/15 03:00:27;;;;;;;0.90;0.53;;;;;;;;;;5114801;28;20466;-70
2022/10/15 03:02:55;;;;;;;0.90;0.40;;;;;;;;;;5114710;28;20478;-70
2022/10/15 03:05:22;;;;;;;0.70;0.40;;;;;;;;;;5115440;28;20559;-71
2022/10/15 03:07:49;;;;;;;2.20;0.50;;;;;;;;;;5113873;28;20452;-70
2022/10/15 03:10:17;;;;;;;0.97;0.53;;;;;;;;;;5113943;28;20503;-70
2022/10/15 03:12:44;;;;;;;0.90;0.70;;;;;;;;;;5114414;28;20894;-70
2022/10/15 03:15:12;;;;;;;7.13;0.70;;;;;;;;;;5113867;28;20447;-70
2022/10/15 03:17:39;;;;;;;0.80;0.60;;;;;;;;;;5114257;28;20458;-70
2022/10/15 03:20:06;;;;;;;2.20;0.70;;;;;;;;;;5113886;28;20938;-70
2022/10/15 03:22:33;;;;;;;1.00;0.40;;;;;;;;;;5114206;28;20524;-70
2022/10/15 03:25:00;;;;;;;0.80;0.50;;;;;;;;;;5113721;28;20440;-70
2022/10/15 03:27:29;;;;;;;0.70;0.40;;;;;;;;;;5113835;28;20448;-70
2022/10/15 03:29:56;;;;;;;0.70;0.40;;;;;;;;;;5113352;28;20468;-70
2022/10/15 03:32:23;;;;;;;0.80;0.40;;;;;;;;;;5114058;28;20546;-70
2022/10/15 03:34:50;;;;;;;0.63;0.40;;;;;;;;;;5113787;28;20447;-70
2022/10/15 03:37:17;;;;;;;0.70;0.40;;;;;;;;;;5112611;28;20445;-70
2022/10/15 03:39:44;;;;;;;0.80;0.50;;;;;;;;;;5110715;28;20452;-70
2022/10/15 03:42:12;;;;;;;0.80;0.50;;;;;;;;;;5103189;28;20839;-70
2022/10/15 03:44:40;;;;;;;0.73;0.43;;;;;;;;;;5113232;28;20443;-71
2022/10/15 03:47:07;;;;;;;9.13;0.70;;;;;;;;;;5111136;28;20839;-70
2022/10/15 03:49:34;;;;;;;1.83;0.57;;;;;;;;;;5113488;28;20478;-70
2022/10/15 03:52:01;;;;;;;0.90;0.60;;;;;;;;;;5113063;28;20451;-70
2022/10/15 03:54:28;;;;;;;0.80;0.47;;;;;;;;;;5113530;28;20451;-70
2022/10/15 03:56:55;;;;;;;0.87;0.60;;;;;;;;;;5110998;28;20450;-69
2022/10/15 03:59:23;;;;;;;1.00;0.53;;;;;;;;;;5105829;28;20448;-70
2022/10/15 04:01:51;;;;;;;0.70;0.40;;;;;;;;;;5113620;28;20501;-71
2022/10/15 04:04:18;;;;;;;0.93;0.60;;;;;;;;;;5113033;28;20452;-71
2022/10/15 04:06:46;;;;;;;1.13;0.50;;;;;;;;;;5113279;28;20535;-70
2022/10/15 04:09:14;;;;;;;4.10;0.60;;;;;;;;;;5112770;28;20451;-72
2022/10/15 04:11:41;;;;;;;0.80;0.50;;;;;;;;;;5113523;28;20525;-71
2022/10/15 04:14:08;;;;;;;1.30;0.60;;;;;;;;;;5113079;28;20505;-71
2022/10/15 04:16:35;;;;;;;1.33;0.70;;;;;;;;;;5113881;28;20478;-71
2022/10/15 04:19:04;;;;;;;0.90;0.60;;;;;;;;;;5113050;28;20448;-71
2022/10/15 04:21:31;;;;;;;0.80;0.50;;;;;;;;;;5114157;28;20474;-71
2022/10/15 04:23:58;;;;;;;0.83;0.50;;;;;;;;;;5114183;28;20483;-71
2022/10/15 04:26:25;;;;;;;0.73;0.50;;;;;;;;;;5116824;28;20562;-71
2022/10/15 04:28:52;;;;;;;2.70;0.70;;;;;;;;;;5118034;28;20454;-71
2022/10/15 04:31:19;;;;;;;1.30;0.70;;;;;;;;;;5119080;28;20447;-71
2022/10/15 04:33:48;;;;;;;2.17;0.73;;;;;;;;;;5116976;28;20452;-71
2022/10/15 04:36:17;;;;;;;0.70;0.40;;;;;;;;;;5121333;28;20456;-72
2022/10/15 04:38:44;;;;;;;0.80;0.50;;;;;;;;;;5121871;28;20452;-72
2022/10/15 04:41:12;;;;;;;0.70;0.50;;;;;;;;;;5120710;28;20452;-72
2022/10/15 04:43:40;;;;;;;1.10;0.63;;;;;;;;;;5121448;28;20549;-71
2022/10/15 04:46:07;;;;;;;1.17;0.50;;;;;;;;;;5114248;28;20451;-71
2022/10/15 04:48:35;;;;;;;1.07;0.50;;;;;;;;;;5112262;28;20490;-71
2022/10/15 04:51:06;;;;;;;1.13;0.70;;;;;;;;;;5112487;28;20455;-71
2022/10/15 04:53:35;;;;;;;1.30;0.70;;;;;;;;;;5112256;28;20459;-71
2022/10/15 04:56:03;;;;;;;0.70;0.50;;;;;;;;;;5112297;28;20468;-72
2022/10/15 04:58:30;;;;;;;0.80;0.50;;;;;;;;;;5111747;28;20440;-71
2022/10/15 05:01:00;;;;;;;1.10;0.63;;;;;;;;;;5111091;28;20444;-71
2022/10/15 05:03:27;;;;;;;0.87;0.53;;;;;;;;;;5112310;28;20471;-71
2022/10/15 05:05:54;;;;;;;1.23;0.50;;;;;;;;;;5100807;28;20440;-71
2022/10/15 05:08:21;;;;;;;1.33;0.77;;;;;;;;;;5112097;28;20451;-71
2022/10/15 05:10:50;;;;;;;0.80;0.50;;;;;;;;;;5112342;28;20448;-72
2022/10/15 05:13:17;;;;;;;1.53;0.60;;;;;;;;;;5098991;28;20454;-71
2022/10/15 05:15:44;;;;;;;1.00;0.50;;;;;;;;;;5112040;28;20934;-71
2022/10/15 05:18:11;;;;;;;0.70;0.40;;;;;;;;;;5105933;28;20496;-71
2022/10/15 05:20:38;;;;;;;0.80;0.47;;;;;;;;;;5110564;28;20447;-71
2022/10/15 05:23:05;;;;;;;1.10;0.50;;;;;;;;;;5111367;28;20479;-71
2022/10/15 05:25:32;;;;;;;0.80;0.43;;;;;;;;;;5112222;28;20471;-72
2022/10/15 05:28:01;;;;;;;2.03;0.80;;;;;;;;;;5111293;28;20450;-72
2022/10/15 05:30:28;;;;;;;1.50;0.73;;;;;;;;;;5112069;28;20444;-72
2022/10/15 05:32:55;;;;;;;1.10;0.60;;;;;;;;;;5112192;28;20448;-67
2022/10/15 05:35:23;;;;;;;1.07;0.57;;;;;;;;;;5112067;28;20451;-71
2022/10/15 05:37:50;;;;;;;1.17;0.70;;;;;;;;;;5111333;28;20451;-72
2022/10/15 05:40:17;;;;;;;1.30;0.63;;;;;;;;;;5111309;28;20455;-72
2022/10/15 05:42:45;;;;;;;1.90;1.37;;;;;;;;;;5111656;28;20483;-72
2022/10/15 05:45:13;;;;;;;1.33;1.00;;;;;;;;;;5111385;28;20447;-72
2022/10/15 05:47:40;;;;;;;1.57;0.90;;;;;;;;;;5111399;28;20962;-72
2022/10/15 05:50:08;;;;;;;1.53;1.00;;;;;;;;;;5111129;28;20479;-72
2022/10/15 05:52:35;;;;;;;1.03;0.77;;;;;;;;;;5111691;28;20794;-72
2022/10/15 05:55:02;;;;;;;3.10;1.50;;;;;;;;;;5099330;28;20440;-72
2022/10/15 05:57:29;;;;;;;1.37;0.90;;;;;;;;;;5111132;28;20447;-72
2022/10/15 05:59:56;;;;;;;1.53;1.13;;;;;;;;;;5110740;28;20452;-72
2022/10/15 06:02:24;;;;;;;0.90;0.70;;;;;;;;;;5115577;28;20454;-72
2022/10/15 06:04:52;;;;;;;1.30;0.80;;;;;;;;;;5105639;28;20440;-72
2022/10/15 06:07:19;;;;;;;1.10;0.63;;;;;;;;;;5110796;28;20444;-72
2022/10/15 06:09:46;;;;;;;1.13;0.60;;;;;;;;;;5108350;28;20450;-72
2022/10/15 06:12:13;;;;;;;2.87;1.17;;;;;;;;;;5111009;28;20463;-72
2022/10/15 06:14:40;;;;;;;1.03;0.60;;;;;;;;;;5111655;28;20455;-73
2022/10/15 06:17:07;;;;;;;1.00;0.60;;;;;;;;;;5110979;28;20451;-72
2022/10/15 06:19:36;;;;;;;1.17;0.70;;;;;;;;;;5111250;28;20448;-72
2022/10/15 06:22:03;;;;;;;1.10;0.80;;;;;;;;;;5105157;28;20444;-72
2022/10/15 06:24:30;;;;;;;1.37;0.77;;;;;;;;;;5111504;28;20528;-72
2022/10/15 06:26:59;;;;;;;0.90;0.50;;;;;;;;;;5110377;28;20950;-72
2022/10/15 06:29:26;;;;;;;0.90;0.67;;;;;;;;;;5111660;28;20452;-71
2022/10/15 06:31:53;;;;;;;1.07;0.80;;;;;;;;;;5111989;28;20459;-71
2022/10/15 06:34:20;;;;;;;1.20;0.67;;;;;;;;;;5114985;28;20444;-72
2022/10/15 06:36:49;;;;;;;1.10;0.80;;;;;;;;;;5115338;28;20536;-73
2022/10/15 06:39:16;;;;;;;1.00;0.70;;;;;;;;;;5104940;28;20786;-73
2022/10/15 06:41:43;;;;;;;1.00;0.60;;;;;;;;;;5115501;28;20450;-72
2022/10/15 06:44:10;;;;;;;0.90;0.60;;;;;;;;;;5114996;28;20471;-72
2022/10/15 06:46:38;;;;;;;1.50;0.93;;;;;;;;;;5115188;28;20462;-72
2022/10/15 06:49:05;;;;;;;1.30;0.80;;;;;;;;;;5114339;28;20990;-71
2022/10/15 06:51:32;;;;;;;1.27;0.70;;;;;;;;;;5115363;28;20450;-72
2022/10/15 06:54:00;;;;;;;1.70;1.17;;;;;;;;;;5114949;28;20452;-73
2022/10/15 06:56:27;;;;;;;1.07;0.63;;;;;;;;;;5114351;28;20448;-71
2022/10/15 06:58:55;;;;;;;1.87;0.97;;;;;;;;;;5102941;28;20447;-72
2022/10/15 07:01:22;;;;;;;1.20;0.77;;;;;;;;;;5115278;28;20444;-70
2022/10/15 07:03:50;;;;;;;1.00;0.70;;;;;;;;;;5114693;28;20476;-72
2022/10/15 07:06:17;;;;;;;1.87;0.83;;;;;;;;;;5114395;28;20455;-73
2022/10/15 07:08:44;;;;;;;1.20;0.77;;;;;;;;;;5114232;28;20454;-72
2022/10/15 07:11:13;;;;;;;1.20;0.60;;;;;;;;;;5114311;28;20570;-73
2022/10/15 07:13:40;;;;;;;2.80;1.00;;;;;;;;;;5113373;28;20451;-72
2022/10/15 07:16:08;;;;;;;2.13;1.10;;;;;;;;;;5110997;28;20478;-72
2022/10/15 07:18:36;;;;;;;1.50;0.70;;;;;;;;;;5114373;28;20785;-72
2022/10/15 07:21:03;;;;;;;2.23;0.90;;;;;;;;;;5113999;28;20455;-72
2022/10/15 07:23:30;;;;;;;1.20;0.80;;;;;;;;;;5114503;28;20479;-72
2022/10/15 07:25:58;;;;;;;1.33;0.80;;;;;;;;;;5111114;28;20444;-72
2022/10/15 07:28:26;;;;;;;1.03;0.70;;;;;;;;;;5105248;28;20444;-71
2022/10/15 07:30:53;;;;;;;1.53;0.77;;;;;;;;;;5114596;28;20448;-72
2022/10/15 07:33:21;;;;;;;1.43;0.80;;;;;;;;;;5114644;28;20797;-72
2022/10/15 07:35:48;;;;;;;1.70;0.83;;;;;;;;;;5113704;28;20527;-72
2022/10/15 07:38:16;;;;;;;1.10;0.93;;;;;;;;;;5112889;28;20730;-71
2022/10/15 07:40:43;;;;;;;1.77;0.70;;;;;;;;;;5114376;28;20444;-72
2022/10/15 07:43:10;;;;;;;1.10;0.70;;;;;;;;;;5113205;28;20480;-72
2022/10/15 07:45:39;;;;;;;1.63;0.57;;;;;;;;;;5113104;28;20455;-72
2022/10/15 07:48:06;;;;;;;0.90;0.73;;;;;;;;;;5113152;28;20997;-72
2022/10/15 07:50:33;;;;;;;0.90;0.60;;;;;;;;;;5113634;28;20959;-72
2022/10/15 07:53:01;;;;;;;1.27;0.57;;;;;;;;;;5113494;28;20809;-72
2022/10/15 07:55:28;;;;;;;1.10;0.70;;;;;;;;;;5100667;28;20451;-71
2022/10/15 07:57:57;;;;;;;1.23;0.73;;;;;;;;;;5113402;28;20939;-68
2022/10/15 08:00:24;;;;;;;1.23;0.80;;;;;;;;;;5113667;28;20444;-72
2022/10/15 08:02:53;;;;;;;1.37;0.80;;;;;;;;;;5109131;28;20439;-72
2022/10/15 08:05:20;;;;;;;2.93;0.90;;;;;;;;;;5113790;28;20436;-72
2022/10/15 08:07:47;;;;;;;2.23;1.00;;;;;;;;;;5113217;28;20447;-72
2022/10/15 08:10:14;;;;;;;2.10;1.03;;;;;;;;;;5112861;28;20455;-73
2022/10/15 08:12:42;;;;;;;1.47;1.10;;;;;;;;;;5113073;28;20448;-71
2022/10/15 08:15:09;;;;;;;1.63;0.97;;;;;;;;;;5112539;28;20452;-72
2022/10/15 08:17:36;;;;;;;1.80;0.83;;;;;;;;;;5112842;28;20456;-72
2022/10/15 08:20:05;;;;;;;2.23;0.90;;;;;;;;;;5106918;28;20455;-72
2022/10/15 08:22:33;;;;;;;1.53;0.73;;;;;;;;;;5112394;28;20436;-72
2022/10/15 08:25:00;;;;;;;1.90;1.00;;;;;;;;;;5112888;28;20483;-72
2022/10/15 08:27:28;;;;;;;1.73;0.80;;;;;;;;;;5112313;28;20448;-72
2022/10/15 08:29:55;;;;;;;2.03;0.70;;;;;;;;;;5107315;28;20439;-69
2022/10/15 08:32:22;;;;;;;0.83;0.60;;;;;;;;;;5110615;28;20440;-71
2022/10/15 08:34:49;;;;;;;2.00;0.60;;;;;;;;;;5099259;28;20797;-72
2022/10/15 08:37:18;;;;;;;0.83;0.50;;;;;;;;;;5109023;28;20444;-72
2022/10/15 08:39:45;;;;;;;1.50;0.70;;;;;;;;;;5112812;28;20455;-72
2022/10/15 08:42:17;;;;;;;2.33;0.70;;;;;;;;;;5112449;28;20516;-72
2022/10/15 08:44:46;;;;;;;3.10;0.80;;;;;;;;;;5109192;28;20465;-72
2022/10/15 08:47:19;;;;;;;1.30;0.80;;;;;;;;;;5110681;28;20550;-73
2022/10/15 08:49:49;;;;;;;0.80;0.53;;;;;;;;;;5072425;28;20442;-72
2022/10/15 08:52:21;;;;;;;1.10;0.67;;;;;;;;;;5071416;28;20477;-72
2022/10/15 08:54:48;;;;;;;1.73;0.90;;;;;;;;;;5065838;28;20441;-75
2022/10/15 08:57:22;;;;;;;1.10;0.60;;;;;;;;;;5065916;28;20458;-74
2022/10/15 08:59:53;;;;;;;0.73;0.50;;;;;;;;;;5070727;28;20484;-74
2022/10/15 09:02:22;;;;;;;1.23;0.90;;;;;;;;;;5069838;28;20445;-74
2022/10/15 09:04:53;;;;;;;1.00;0.70;;;;;;;;;;5071006;28;20845;-72
2022/10/15 09:07:26;;;;;;;2.20;0.97;;;;;;;;;;5062289;28;20446;-74
2022/10/15 09:09:57;;;;;;;1.17;0.80;;;;;;;;;;5070431;28;20450;-74
2022/10/15 09:12:33;;;;;;;0.87;0.50;;;;;;;;;;5072213;28;20929;-73
2022/10/15 09:15:00;;;;;;;0.90;0.50;;;;;;;;;;5070616;28;20448;-74
2022/10/15 09:17:30;;;;;;;1.10;0.73;;;;;;;;;;5070546;28;20458;-75
2022/10/15 09:19:57;;;;;;;1.27;0.67;;;;;;;;;;5070280;28;20445;-74
2022/10/15 09:22:29;;;;;;;2.03;0.70;;;;;;;;;;5062973;28;20447;-73
2022/10/15 09:24:56;;;;;;;0.90;0.60;;;;;;;;;;5060625;28;20501;-72
2022/10/15 09:27:27;;;;;;;1.13;0.70;;;;;;;;;;5054841;28;20445;-73
2022/10/15 09:30:00;;;;;;;1.10;0.63;;;;;;;;;;5069950;28;20442;-74
2022/10/15 09:32:31;;;;;;;0.93;0.60;;;;;;;;;;5071717;28;20450;-74
2022/10/15 09:35:02;;;;;;;1.20;0.70;;;;;;;;;;5061979;28;20450;-74
2022/10/15 09:37:33;;;;;;;0.80;0.50;;;;;;;;;;5068661;28;20468;-71
2022/10/15 09:40:06;;;;;;;1.00;0.70;;;;;;;;;;5064483;28;20889;-75
2022/10/15 09:42:35;;;;;;;1.27;0.80;;;;;;;;;;5058807;28;20446;-71
2022/10/15 09:45:04;;;;;;;1.10;0.70;;;;;;;;;;5069704;28;20488;-73
2022/10/15 09:47:32;;;;;;;1.00;0.60;;;;;;;;;;5074042;28;20458;-72
2022/10/15 09:49:59;;;;;;;0.80;0.60;;;;;;;;;;5110679;28;20457;-73
2022/10/15 09:52:41;;;;;;;0.70;0.40;;;;;;;;;;5111247;28;20483;-73
2022/10/15 09:55:16;;;;;;;1.90;1.03;;;;;;;;;;5110616;28;20455;-72
2022/10/15 09:57:47;;;;;;;1.20;0.63;;;;;;;;;;5110704;28;20570;-74
2022/10/15 10:00:14;;;;;;;6.07;3.10;;;;;;;;;;5109563;28;20440;-73
2022/10/15 10:02:41;;;;;;;1.10;0.60;;;;;;;;;;5108523;28;20444;-72
2022/10/15 10:05:19;;;;;;;0.77;0.50;;;;;;;;;;5110141;28;20489;-71
2022/10/15 10:07:46;;;;;;;0.70;0.50;;;;;;;;;;5098532;28;20448;-71
2022/10/15 10:10:24;;;;;;;0.70;0.43;;;;;;;;;;5109237;28;20442;-73
2022/10/15 10:12:52;;;;;;;0.90;0.60;;;;;;;;;;5108189;28;20484;-73
2022/10/15 10:15:28;;;;;;;1.10;0.67;;;;;;;;;;5111132;28;20455;-72
2022/10/15 10:17:56;;;;;;;2.77;0.53;;;;;;;;;;5109730;28;20448;-70
2022/10/15 10:20:24;;;;;;;0.80;0.50;;;;;;;;;;5111602;28;20448;-74
2022/10/15 10:22:52;;;;;;;0.80;0.60;;;;;;;;;;5111347;28;20451;-74
2022/10/15 10:25:30;;;;;;;0.83;0.60;;;;;;;;;;5110644;28;20487;-73
2022/10/15 10:27:59;;;;;;;0.90;0.63;;;;;;;;;;5096268;28;20455;-73
2022/10/15 10:30:26;;;;;;;0.80;0.50;;;;;;;;;;5104625;28;20787;-73
2022/10/15 10:32:57;;;;;;;1.07;0.60;;;;;;;;;;5111021;28;20436;-72
2022/10/15 10:35:25;;;;;;;0.77;0.67;;;;;;;;;;5110910;28;20447;-72
2022/10/15 10:37:52;;;;;;;1.00;0.63;;;;;;;;;;5110567;28;20471;-73
2022/10/15 10:40:23;;;;;;;0.80;0.50;;;;;;;;;;5095629;28;20441;-73
2022/10/15 10:43:09;;;;;;;1.17;0.50;;;;;;;;;;5110624;28;20448;-73
2022/10/15 10:45:36;;;;;;;1.23;0.57;;;;;;;;;;5109883;28;20483;-74
2022/10/15 10:48:18;;;;;;;1.20;0.50;;;;;;;;;;5109724;28;20472;-74
2022/10/15 10:50:45;;;;;;;1.30;0.60;;;;;;;;;;5111477;28;20865;-74
2022/10/15 10:53:21;;;;;;;0.80;0.50;;;14.20;99.90;;;;;;5110034;28;20448;-74
2022/10/15 10:55:49;;;;;;;1.83;0.50;;;19.30;99.90;;;;;;5110856;28;20451;-74
2022/10/15 10:58:21;;;;;;;1.03;0.70;;;;;;;;;;5110540;28;20460;-74
2022/10/15 11:00:49;;;;;;;1.87;0.70;;;;;;;;;;5111021;28;20436;-74
2022/10/15 11:03:21;;;;;;;2.53;1.00;;;;;;;;;;5110219;28;20440;-74
2022/10/15 11:05:51;;;;;;;0.80;0.50;;;;;;;;;;5110898;28;20476;-74
2022/10/15 11:08:22;;;;;;;0.80;0.50;;;;;;;;;;5110106;28;20443;-73
2022/10/15 11:10:52;;;;;;;0.90;0.50;;;;;;;;;;5111029;28;20447;-73
2022/10/15 11:13:37;;;;;;;1.30;0.80;;;;;;;;;;5110287;28;20447;-74
2022/10/15 11:16:08;;;;;;;1.00;0.60;;;;;;;;;;5110047;28;20470;-74
2022/10/15 11:18:40;;;;;;;1.00;0.70;;;;;;;;;;5111155;28;20467;-74
2022/10/15 11:21:11;;;;;;;1.63;0.50;;;;;;;;;;5114115;28;20522;-74
2022/10/15 11:23:43;;;;;;;0.70;0.50;;;;;;;;;;5114205;28;20477;-74
2022/10/15 11:26:18;;;;;;;0.97;0.70;;;;;;;;;;5114131;28;20479;-74
2022/10/15 11:28:51;;;;;;;1.47;0.70;;;;;;;;;;5114526;28;20450;-74
2022/10/15 11:31:23;;;;;;;0.80;0.50;;;;;;;;;;5113674;28;20923;-73
2022/10/15 11:33:56;;;;;;;1.00;0.60;;;;;;;;;;5114753;28;20794;-74
2022/10/15 11:36:45;;;;;;;1.17;0.80;;;;;;;;;;5114401;28;20927;-74
2022/10/15 11:39:24;;;;;;;1.40;0.77;;;;;;;;;;5113416;28;20947;-74
2022/10/15 11:41:57;;;;;;;0.90;0.70;;;;;;;;;;5114219;28;20447;-74
2022/10/15 11:44:32;;;;;;;1.20;0.70;;;;;;;;;;5114338;28;20472;-73
2022/10/15 11:47:07;;;;;;;1.10;0.60;;;;;;;;;;5113313;28;20459;-74
2022/10/15 11:49:39;;;;;;;0.80;0.50;;;;;;;;;;5114419;28;20473;-75
2022/10/15 11:52:13;;;;;;;0.83;0.50;;;;;;;;;;5112931;28;20439;-74
2022/10/15 11:54:42;;;;;;;1.00;0.60;;;;;;;;;;5113720;28;20934;-72
2022/10/15 11:57:12;;;;;;;0.70;0.43;;;;;;;;;;5112002;28;20463;-74
2022/10/15 11:59:44;;;;;;;1.57;0.70;;;;;;;;;;5113563;28;20465;-74
2022/10/15 12:02:14;;;;;;;0.67;0.50;;;;;;;;;;5111916;28;20443;-75
2022/10/15 12:04:43;;;;;;;1.90;0.60;;;;;;;;;;5113739;28;20490;-74
2022/10/15 12:07:13;;;;;;;3.00;2.10;;;;;;;;;;5111882;28;20448;-74
2022/10/15 12:09:42;;;;;;;1.10;0.60;;;;;;;;;;5112214;28;20468;-67
2022/10/15 12:12:12;;;;;;;0.83;0.60;;;;;;;;;;5104689;28;20456;-74
2022/10/15 12:14:45;;;;;;;0.70;0.50;;;19.20;99.90;;;;;;5113338;28;20452;-74
2022/10/15 12:17:17;;;;;;;0.77;0.53;;;;;;;;;;5112578;28;20456;-74
2022/10/15 12:19:47;;;;;;;0.90;0.50;;;;;;;;;;5113435;28;20758;-74
2022/10/15 12:22:31;;;;;;;0.70;0.60;;;;;;;;;;5112583;28;20448;-73
2022/10/15 12:24:58;;;;;;;0.83;0.60;;;;;;;;;;5112896;28;20471;-74
2022/10/15 12:27:34;;;;;;;0.80;0.50;;;;;;;;;;5113388;28;20456;-72
2022/10/15 12:30:21;;;;;;;0.80;0.50;;;19.40;1.00;;;;;;5108741;28;20431;-74
2022/10/15 12:32:50;;;;;;;0.90;0.60;;;19.20;1.00;;;;;;5100319;28;20777;-75
2022/10/15 12:35:25;;;;;;;1.17;0.60;;;19.20;1.00;;;;;;5112074;28;20463;-75
2022/10/15 12:37:52;;;;;;;1.00;0.63;;;19.20;99.90;;;;;;5103261;28;20547;-74
2022/10/15 12:40:30;;;;;;;0.90;0.50;;;19.30;99.90;;;;;;5112438;28;20444;-74
2022/10/15 12:43:00;;;;;;;0.90;0.60;;;19.30;99.90;;;;;;5104406;28;20437;-74
2022/10/15 12:45:31;;;;;;;0.60;0.40;;;;;;;;;;5112187;28;20986;-75
2022/10/15 12:48:14;;;;;;;0.90;0.57;;;;;;;;;;5111237;28;20845;-73
2022/10/15 12:50:41;;;;;;;1.00;0.50;;;;;;;;;;5107394;28;20437;-71
2022/10/15 12:53:31;;;;;;;1.00;0.70;;;;;;;;;;5105667;28;20452;-72
2022/10/15 12:56:13;;;;;;;0.70;0.50;;;;;;;;;;5108091;28;20482;-71
2022/10/15 12:58:40;;;;;;;0.90;0.70;;;;;;;;;;5112290;28;20501;-71
2022/10/15 13:01:27;;;;;;;0.80;0.60;;;;;;;;;;5107103;28;20454;-74
2022/10/15 13:03:56;;;;;;;0.93;0.60;;;;;;;;;;5108554;28;20447;-74
2022/10/15 13:06:31;;;;;;;3.33;0.60;;;;;;;;;;5108952;28;20480;-74
2022/10/15 13:09:03;;;;;;;1.53;0.80;;;;;;;;;;5111613;28;20501;-70
2022/10/15 13:11:31;;;;;;;1.40;0.57;;;;;;;;;;5106515;28;20448;-69
2022/10/15 13:13:59;;;;;;;1.10;0.60;;;;;;;;;;5109329;28;20460;-69
2022/10/15 13:16:27;;;;;;;0.97;0.60;;;;;;;;;;5109759;28;20563;-70
2022/10/15 13:18:57;;;;;;;1.00;0.60;;;;;;;;;;5109526;28;20965;-70
2022/10/15 13:21:45;;;;;;;1.10;0.80;;;;;;;;;;5109323;28;20446;-70
2022/10/15 13:24:12;;;;;;;2.10;0.93;;;;;;;;;;5108860;28;20448;-69
2022/10/15 13:26:39;;;;;;;1.60;0.80;;;;;;;;;;5109575;28;20837;-68
2022/10/15 13:29:07;;;;;;;1.00;0.70;;;;;;;;;;5107747;28;20466;-69
2022/10/15 13:31:37;;;;;;;1.10;0.80;;;;;;;;;;5108745;28;20444;-70
2022/10/15 13:34:09;;;;;;;1.30;0.90;;;;;;;;;;5109056;28;20536;-70
2022/10/15 13:36:36;;;;;;;2.70;0.90;;;;;;;;;;5109352;28;20443;-69
2022/10/15 13:39:06;;;;;;;1.00;0.90;;;;;;;;;;5108374;28;20452;-70
2022/10/15 13:41:34;;;;;;;2.50;0.70;;;;;;;;;;5108215;28;20808;-70
2022/10/15 13:44:02;;;;;;;0.90;0.70;;;;;;;;;;5106278;28;20527;-69
2022/10/15 13:46:30;;;;;;;1.10;0.60;;;;;;;;;;5108592;28;20491;-69
2022/10/15 13:48:58;;;;;;;1.40;0.80;;;;;;;;;;5108137;28;20472;-69
2022/10/15 13:51:29;;;;;;;1.20;0.80;;;;;;;;;;5108540;28;20952;-70
2022/10/15 13:53:57;;;;;;;2.10;1.03;;;;;;;;;;5108001;28;20455;-68
2022/10/15 13:56:25;;;;;;;2.93;0.77;;;;;;;;;;5108692;28;20462;-69
2022/10/15 13:58:53;;;;;;;1.70;0.77;;;;;;;;;;5099293;28;20483;-69
2022/10/15 14:01:21;;;;;;;0.70;0.53;;;;;;;;;;5109054;28;20479;-70
2022/10/15 14:03:49;;;;;;;1.10;0.70;;;;;;;;;;5109313;28;20543;-70
2022/10/15 14:06:18;;;;;;;1.23;0.83;;;;;;;;;;5097162;28;20477;-70
2022/10/15 14:08:47;;;;;;;0.93;0.73;;;;;;;;;;5109137;28;20443;-70
2022/10/15 14:11:15;;;;;;;1.20;0.70;;;;;;;;;;5108278;28;20436;-70
2022/10/15 14:13:45;;;;;;;0.93;0.60;;;;;;;;;;5103853;28;20437;-70
2022/10/15 14:16:14;;;;;;;1.77;0.80;;;;;;;;;;5105678;28;20550;-70
2022/10/15 14:18:44;;;;;;;1.23;0.80;;;;;;;;;;5109087;28;20443;-70
2022/10/15 14:21:11;;;;;;;0.90;0.80;;;;;;;;;;5108007;28;20440;-70
2022/10/15 14:23:40;;;;;;;2.13;1.00;;;;;;;;;;5108899;28;20451;-69
2022/10/15 14:26:09;;;;;;;1.00;0.60;;;;;;;;;;5106757;28;20492;-69
2022/10/15 14:28:37;;;;;;;2.77;0.90;;;;;;;;;;5101535;28;20443;-70
2022/10/15 14:31:05;;;;;;;2.70;0.83;;;;;;;;;;5107804;28;20440;-70
2022/10/15 14:33:34;;;;;;;1.40;1.00;;;;;;;;;;5109059;28;20534;-70
2022/10/15 14:36:05;;;;;;;5.43;1.07;;;;;;;;;;5107835;28;20455;-69
2022/10/15 14:38:32;;;;;;;1.67;0.70;;;;;;;;;;5105974;28;20441;-70
2022/10/15 14:41:00;;;;;;;1.73;0.87;;;;;;;;;;5108103;28;20444;-70
2022/10/15 14:43:33;;;;;;;1.43;1.20;;;;;;;;;;5106566;28;20471;-70
2022/10/15 14:46:01;;;;;;;1.10;0.77;;;;;;;;;;5107573;28;20475;-70
2022/10/15 14:48:29;;;;;;;3.37;1.63;;;;;;;;;;5107249;28;20479;-70
2022/10/15 14:50:58;;;;;;;1.10;0.60;;;;;;;;;;5107555;28;20454;-67
2022/10/15 14:53:27;;;;;;;0.97;0.70;;;;;;;;;;5104711;28;20455;-68